sensor_id;sensor_type;location;lat;lon;timestamp;temperature;humidity
14850;DHT22;7517;48.400;11.770;2022-12-18T00:01:22;1.60;77.60
14850;DHT22;7517;48.400;11.770;2022-12-18T00:03:51;1.60;77.50
14850;DHT22;7517;48.400;11.770;2022-12-18T00:06:19;1.60;77.40
14850;DHT22;7517;48.400;11.770;2022-12-18T00:08:47;1.60;77.30
14850;DHT22;7517;48.400;11.770;2022-12-18T00:11:16;1.60;77.10
14850;DHT22;7517;48.400;11.770;2022-12-18T00:13:47;1.60;77.00
14850;DHT22;7517;48.400;11.770;2022-12-18T00:16:17;1.60;77.00
14850;DHT22;7517;48.400;11.770;2022-12-18T00:18:46;1.60;76.90
14850;DHT22;7517;48.400;11.770;2022-12-18T00:21:15;1.60;77.00
14850;DHT22;7517;48.400;11.770;2022-12-18T00:23:45;1.60;76.90
14850;DHT22;7517;48.400;11.770;2022-12-18T00:26:15;1.60;76.80
14850;DHT22;7517;48.400;11.770;2022-12-18T00:28:44;1.60;76.90
14850;DHT22;7517;48.400;11.770;2022-12-18T00:31:14;1.60;76.80
14850;DHT22;7517;48.400;11.770;2022-12-18T00:33:44;1.60;76.70
14850;DHT22;7517;48.400;11.770;2022-12-18T00:36:13;1.60;76.60
14850;DHT22;7517;48.400;11.770;2022-12-18T00:38:41;1.60;76.70
14850;DHT22;7517;48.400;11.770;2022-12-18T00:41:10;1.60;76.70
14850;DHT22;7517;48.400;11.770;2022-12-18T00:43:40;1.60;76.70
14850;DHT22;7517;48.400;11.770;2022-12-18T00:46:07;1.60;76.80
14850;DHT22;7517;48.400;11.770;2022-12-18T00:48:35;1.60;76.90
14850;DHT22;7517;48.400;11.770;2022-12-18T00:51:02;1.60;76.80
14850;DHT22;7517;48.400;11.770;2022-12-18T00:53:29;1.60;76.90
14850;DHT22;7517;48.400;11.770;2022-12-18T00:55:57;1.60;77.00
14850;DHT22;7517;48.400;11.770;2022-12-18T00:58:24;0.90;76.70
14850;DHT22;7517;48.400;11.770;2022-12-18T01:00:51;1.60;77.00
14850;DHT22;7517;48.400;11.770;2022-12-18T01:03:20;1.60;77.10
14850;DHT22;7517;48.400;11.770;2022-12-18T01:05:48;1.60;77.00
14850;DHT22;7517;48.400;11.770;2022-12-18T01:08:15;1.60;77.00
14850;DHT22;7517;48.400;11.770;2022-12-18T01:10:42;1.60;77.00
14850;DHT22;7517;48.400;11.770;2022-12-18T01:13:09;1.70;76.80
14850;DHT22;7517;48.400;11.770;2022-12-18T01:15:36;1.60;76.80
14850;DHT22;7517;48.400;11.770;2022-12-18T01:18:04;1.70;77.00
14850;DHT22;7517;48.400;11.770;2022-12-18T01:20:32;1.70;77.10
14850;DHT22;7517;48.400;11.770;2022-12-18T01:22:59;1.70;77.20
14850;DHT22;7517;48.400;11.770;2022-12-18T01:25:27;1.70;77.10
14850;DHT22;7517;48.400;11.770;2022-12-18T01:27:54;1.70;77.20
14850;DHT22;7517;48.400;11.770;2022-12-18T01:30:21;1.70;77.20
14850;DHT22;7517;48.400;11.770;2022-12-18T01:32:48;1.70;77.30
14850;DHT22;7517;48.400;11.770;2022-12-18T01:35:16;1.70;77.50
14850;DHT22;7517;48.400;11.770;2022-12-18T01:37:45;1.80;77.60
14850;DHT22;7517;48.400;11.770;2022-12-18T01:40:12;1.80;77.60
14850;DHT22;7517;48.400;11.770;2022-12-18T01:42:39;2.20;77.80
14850;DHT22;7517;48.400;11.770;2022-12-18T01:45:24;1.80;77.50
14850;DHT22;7517;48.400;11.770;2022-12-18T01:47:54;1.90;77.20
14850;DHT22;7517;48.400;11.770;2022-12-18T01:50:25;1.80;77.30
14850;DHT22;7517;48.400;11.770;2022-12-18T01:53:00;1.90;77.60
14850;DHT22;7517;48.400;11.770;2022-12-18T01:55:37;1.90;77.70
14850;DHT22;7517;48.400;11.770;2022-12-18T01:58:07;1.90;77.70
14850;DHT22;7517;48.400;11.770;2022-12-18T02:00:34;1.90;77.70
14850;DHT22;7517;48.400;11.770;2022-12-18T02:03:02;1.90;77.60
14850;DHT22;7517;48.400;11.770;2022-12-18T02:05:40;2.00;77.60
14850;DHT22;7517;48.400;11.770;2022-12-18T02:08:19;2.00;77.30
14850;DHT22;7517;48.400;11.770;2022-12-18T02:10:53;2.00;77.50
14850;DHT22;7517;48.400;11.770;2022-12-18T02:13:32;2.00;77.60
14850;DHT22;7517;48.400;11.770;2022-12-18T02:16:16;2.00;77.60
14850;DHT22;7517;48.400;11.770;2022-12-18T02:18:50;2.00;77.60
14850;DHT22;7517;48.400;11.770;2022-12-18T02:21:28;2.00;77.60
14850;DHT22;7517;48.400;11.770;2022-12-18T02:24:15;2.10;77.40
14850;DHT22;7517;48.400;11.770;2022-12-18T02:26:51;2.10;77.30
14850;DHT22;7517;48.400;11.770;2022-12-18T02:29:25;2.10;77.40
14850;DHT22;7517;48.400;11.770;2022-12-18T02:31:57;2.10;77.30
14850;DHT22;7517;48.400;11.770;2022-12-18T02:34:30;2.10;77.10
14850;DHT22;7517;48.400;11.770;2022-12-18T02:37:03;2.10;77.10
14850;DHT22;7517;48.400;11.770;2022-12-18T02:39:35;2.10;77.10
14850;DHT22;7517;48.400;11.770;2022-12-18T02:42:05;2.10;77.20
14850;DHT22;7517;48.400;11.770;2022-12-18T02:44:34;2.10;77.30
14850;DHT22;7517;48.400;11.770;2022-12-18T02:47:01;2.10;77.30
14850;DHT22;7517;48.400;11.770;2022-12-18T02:49:35;2.10;77.50
14850;DHT22;7517;48.400;11.770;2022-12-18T02:52:13;2.10;77.40
14850;DHT22;7517;48.400;11.770;2022-12-18T02:55:00;2.10;77.30
14850;DHT22;7517;48.400;11.770;2022-12-18T02:57:42;2.10;77.40
14850;DHT22;7517;48.400;11.770;2022-12-18T03:00:17;2.10;77.30
14850;DHT22;7517;48.400;11.770;2022-12-18T03:02:50;2.10;77.50
14850;DHT22;7517;48.400;11.770;2022-12-18T03:05:24;2.20;77.50
14850;DHT22;7517;48.400;11.770;2022-12-18T03:07:59;2.20;77.40
14850;DHT22;7517;48.400;11.770;2022-12-18T03:10:32;2.20;77.50
14850;DHT22;7517;48.400;11.770;2022-12-18T03:13:08;2.20;77.50
14850;DHT22;7517;48.400;11.770;2022-12-18T03:15:44;2.20;77.60
14850;DHT22;7517;48.400;11.770;2022-12-18T03:18:16;2.20;77.60
14850;DHT22;7517;48.400;11.770;2022-12-18T03:20:47;2.20;77.40
14850;DHT22;7517;48.400;11.770;2022-12-18T03:23:20;2.20;77.20
14850;DHT22;7517;48.400;11.770;2022-12-18T03:25:51;2.20;76.90
14850;DHT22;7517;48.400;11.770;2022-12-18T03:28:22;2.20;77.00
14850;DHT22;7517;48.400;11.770;2022-12-18T03:30:53;2.20;77.20
14850;DHT22;7517;48.400;11.770;2022-12-18T03:33:28;2.20;77.40
14850;DHT22;7517;48.400;11.770;2022-12-18T03:35:58;2.20;77.40
14850;DHT22;7517;48.400;11.770;2022-12-18T03:38:25;2.20;77.40
14850;DHT22;7517;48.400;11.770;2022-12-18T03:40:59;2.20;77.50
14850;DHT22;7517;48.400;11.770;2022-12-18T03:43:38;2.20;77.40
14850;DHT22;7517;48.400;11.770;2022-12-18T03:46:20;2.20;77.20
14850;DHT22;7517;48.400;11.770;2022-12-18T03:48:59;2.20;76.80
14850;DHT22;7517;48.400;11.770;2022-12-18T03:51:38;2.30;76.70
14850;DHT22;7517;48.400;11.770;2022-12-18T03:54:10;2.20;76.30
14850;DHT22;7517;48.400;11.770;2022-12-18T03:56:41;2.20;76.40
14850;DHT22;7517;48.400;11.770;2022-12-18T03:59:17;2.10;76.30
14850;DHT22;7517;48.400;11.770;2022-12-18T04:01:48;2.10;76.40
14850;DHT22;7517;48.400;11.770;2022-12-18T04:04:18;2.10;76.20
14850;DHT22;7517;48.400;11.770;2022-12-18T04:06:47;2.00;76.30
14850;DHT22;7517;48.400;11.770;2022-12-18T04:09:16;2.00;76.60
14850;DHT22;7517;48.400;11.770;2022-12-18T04:11:45;2.00;76.90
14850;DHT22;7517;48.400;11.770;2022-12-18T04:14:13;2.00;77.00
14850;DHT22;7517;48.400;11.770;2022-12-18T04:16:41;2.00;77.20
14850;DHT22;7517;48.400;11.770;2022-12-18T04:19:08;2.00;77.40
14850;DHT22;7517;48.400;11.770;2022-12-18T04:21:36;2.00;77.30
14850;DHT22;7517;48.400;11.770;2022-12-18T04:24:03;2.00;77.40
14850;DHT22;7517;48.400;11.770;2022-12-18T04:26:31;2.00;77.60
14850;DHT22;7517;48.400;11.770;2022-12-18T04:28:58;2.10;77.50
14850;DHT22;7517;48.400;11.770;2022-12-18T04:31:25;2.10;77.60
14850;DHT22;7517;48.400;11.770;2022-12-18T04:33:55;2.10;77.70
14850;DHT22;7517;48.400;11.770;2022-12-18T04:36:22;2.10;77.60
14850;DHT22;7517;48.400;11.770;2022-12-18T04:38:49;2.10;77.60
14850;DHT22;7517;48.400;11.770;2022-12-18T04:41:17;2.20;77.50
14850;DHT22;7517;48.400;11.770;2022-12-18T04:43:44;2.20;77.40
14850;DHT22;7517;48.400;11.770;2022-12-18T04:46:11;2.20;77.50
14850;DHT22;7517;48.400;11.770;2022-12-18T04:48:38;2.20;77.50
14850;DHT22;7517;48.400;11.770;2022-12-18T04:51:07;2.20;77.50
14850;DHT22;7517;48.400;11.770;2022-12-18T04:53:34;2.20;77.40
14850;DHT22;7517;48.400;11.770;2022-12-18T04:56:05;2.20;77.30
14850;DHT22;7517;48.400;11.770;2022-12-18T04:58:34;2.20;77.70
14850;DHT22;7517;48.400;11.770;2022-12-18T05:01:02;2.20;77.50
14850;DHT22;7517;48.400;11.770;2022-12-18T05:03:32;2.30;77.60
14850;DHT22;7517;48.400;11.770;2022-12-18T05:09:35;2.30;76.40
14850;DHT22;7517;48.400;11.770;2022-12-18T05:12:02;2.20;76.70
14850;DHT22;7517;48.400;11.770;2022-12-18T05:14:30;2.20;77.00
14850;DHT22;7517;48.400;11.770;2022-12-18T05:16:57;2.60;77.10
14850;DHT22;7517;48.400;11.770;2022-12-18T05:19:25;2.20;76.90
14850;DHT22;7517;48.400;11.770;2022-12-18T05:21:53;2.60;77.50
14850;DHT22;7517;48.400;11.770;2022-12-18T05:24:20;3.50;78.00
14850;DHT22;7517;48.400;11.770;2022-12-18T05:26:48;3.30;77.90
14850;DHT22;7517;48.400;11.770;2022-12-18T05:29:15;3.00;77.80
14850;DHT22;7517;48.400;11.770;2022-12-18T05:31:42;2.60;77.60
14850;DHT22;7517;48.400;11.770;2022-12-18T05:34:09;2.10;77.20
14850;DHT22;7517;48.400;11.770;2022-12-18T05:36:36;2.40;77.30
14850;DHT22;7517;48.400;11.770;2022-12-18T05:39:05;2.40;77.80
14850;DHT22;7517;48.400;11.770;2022-12-18T05:41:33;2.40;77.30
14850;DHT22;7517;48.400;11.770;2022-12-18T05:44:00;2.30;77.10
14850;DHT22;7517;48.400;11.770;2022-12-18T05:46:28;2.30;77.10
14850;DHT22;7517;48.400;11.770;2022-12-18T05:48:59;2.50;77.20
14850;DHT22;7517;48.400;11.770;2022-12-18T05:51:26;2.30;77.20
14850;DHT22;7517;48.400;11.770;2022-12-18T05:53:54;2.50;77.30
14850;DHT22;7517;48.400;11.770;2022-12-18T05:56:23;2.60;77.40
14850;DHT22;7517;48.400;11.770;2022-12-18T05:58:52;2.90;77.30
14850;DHT22;7517;48.400;11.770;2022-12-18T06:01:22;3.00;78.30
14850;DHT22;7517;48.400;11.770;2022-12-18T06:03:50;2.40;77.10
14850;DHT22;7517;48.400;11.770;2022-12-18T06:06:19;2.30;77.00
14850;DHT22;7517;48.400;11.770;2022-12-18T06:08:48;2.30;77.00
14850;DHT22;7517;48.400;11.770;2022-12-18T06:11:18;2.30;77.10
14850;DHT22;7517;48.400;11.770;2022-12-18T06:13:50;2.40;77.10
14850;DHT22;7517;48.400;11.770;2022-12-18T06:16:17;3.10;77.30
14850;DHT22;7517;48.400;11.770;2022-12-18T06:18:45;3.20;77.30
14850;DHT22;7517;48.400;11.770;2022-12-18T06:21:12;2.30;76.80
14850;DHT22;7517;48.400;11.770;2022-12-18T06:23:39;2.30;76.80
14850;DHT22;7517;48.400;11.770;2022-12-18T06:26:08;2.30;76.80
14850;DHT22;7517;48.400;11.770;2022-12-18T06:28:37;3.40;77.40
14850;DHT22;7517;48.400;11.770;2022-12-18T06:31:07;3.60;77.40
14850;DHT22;7517;48.400;11.770;2022-12-18T06:33:34;2.90;77.00
14850;DHT22;7517;48.400;11.770;2022-12-18T06:36:03;2.30;76.80
14850;DHT22;7517;48.400;11.770;2022-12-18T06:38:33;2.30;77.00
14850;DHT22;7517;48.400;11.770;2022-12-18T06:41:06;2.30;77.00
14850;DHT22;7517;48.400;11.770;2022-12-18T06:43:37;2.30;76.70
14850;DHT22;7517;48.400;11.770;2022-12-18T06:46:06;2.40;76.90
14850;DHT22;7517;48.400;11.770;2022-12-18T06:48:33;2.30;76.80
14850;DHT22;7517;48.400;11.770;2022-12-18T06:51:01;2.20;76.80
14850;DHT22;7517;48.400;11.770;2022-12-18T06:53:34;2.40;77.00
14850;DHT22;7517;48.400;11.770;2022-12-18T06:56:02;2.20;76.70
14850;DHT22;7517;48.400;11.770;2022-12-18T06:58:30;2.30;76.80
14850;DHT22;7517;48.400;11.770;2022-12-18T07:01:00;2.30;77.00
14850;DHT22;7517;48.400;11.770;2022-12-18T07:03:29;2.50;77.00
14850;DHT22;7517;48.400;11.770;2022-12-18T07:05:56;2.80;77.00
14850;DHT22;7517;48.400;11.770;2022-12-18T07:08:23;2.30;76.60
14850;DHT22;7517;48.400;11.770;2022-12-18T07:10:51;2.30;76.60
14850;DHT22;7517;48.400;11.770;2022-12-18T07:13:19;3.70;77.60
14850;DHT22;7517;48.400;11.770;2022-12-18T07:15:46;3.70;77.70
14850;DHT22;7517;48.400;11.770;2022-12-18T07:18:13;2.50;76.70
14850;DHT22;7517;48.400;11.770;2022-12-18T07:20:42;3.50;77.10
14850;DHT22;7517;48.400;11.770;2022-12-18T07:23:10;2.90;76.20
14850;DHT22;7517;48.400;11.770;2022-12-18T07:25:37;2.20;76.60
14850;DHT22;7517;48.400;11.770;2022-12-18T07:28:05;2.30;75.90
14850;DHT22;7517;48.400;11.770;2022-12-18T07:30:32;2.20;75.80
14850;DHT22;7517;48.400;11.770;2022-12-18T07:32:59;2.20;75.70
14850;DHT22;7517;48.400;11.770;2022-12-18T07:35:26;2.20;75.40
14850;DHT22;7517;48.400;11.770;2022-12-18T07:37:58;2.50;75.50
14850;DHT22;7517;48.400;11.770;2022-12-18T07:40:25;3.10;75.70
14850;DHT22;7517;48.400;11.770;2022-12-18T07:42:52;2.60;75.60
14850;DHT22;7517;48.400;11.770;2022-12-18T07:45:20;2.10;75.10
14850;DHT22;7517;48.400;11.770;2022-12-18T07:47:47;2.00;75.20
14850;DHT22;7517;48.400;11.770;2022-12-18T07:50:14;2.00;75.30
14850;DHT22;7517;48.400;11.770;2022-12-18T07:52:42;2.00;75.70
14850;DHT22;7517;48.400;11.770;2022-12-18T07:55:10;2.10;75.30
14850;DHT22;7517;48.400;11.770;2022-12-18T07:57:37;3.10;75.90
14850;DHT22;7517;48.400;11.770;2022-12-18T08:00:06;3.40;76.30
14850;DHT22;7517;48.400;11.770;2022-12-18T08:02:33;1.90;75.30
14850;DHT22;7517;48.400;11.770;2022-12-18T08:05:01;2.80;75.70
14850;DHT22;7517;48.400;11.770;2022-12-18T08:07:28;2.30;75.40
14850;DHT22;7517;48.400;11.770;2022-12-18T08:09:55;1.80;76.10
14850;DHT22;7517;48.400;11.770;2022-12-18T08:12:23;2.10;75.90
14850;DHT22;7517;48.400;11.770;2022-12-18T08:14:51;3.10;76.40
14850;DHT22;7517;48.400;11.770;2022-12-18T08:17:19;1.80;75.60
14850;DHT22;7517;48.400;11.770;2022-12-18T08:19:47;2.60;76.60
14850;DHT22;7517;48.400;11.770;2022-12-18T08:22:33;1.70;76.20
14850;DHT22;7517;48.400;11.770;2022-12-18T08:25:01;1.90;76.60
14850;DHT22;7517;48.400;11.770;2022-12-18T08:27:30;3.10;77.50
14850;DHT22;7517;48.400;11.770;2022-12-18T08:29:58;1.90;76.40
14850;DHT22;7517;48.400;11.770;2022-12-18T08:32:27;2.40;76.80
14850;DHT22;7517;48.400;11.770;2022-12-18T08:34:54;2.00;76.20
14850;DHT22;7517;48.400;11.770;2022-12-18T08:37:22;3.30;76.90
14850;DHT22;7517;48.400;11.770;2022-12-18T08:39:49;2.20;76.10
14850;DHT22;7517;48.400;11.770;2022-12-18T08:42:17;1.90;76.00
14850;DHT22;7517;48.400;11.770;2022-12-18T08:45:04;2.00;75.80
14850;DHT22;7517;48.400;11.770;2022-12-18T08:47:32;2.00;75.90
14850;DHT22;7517;48.400;11.770;2022-12-18T08:49:59;2.00;76.10
14850;DHT22;7517;48.400;11.770;2022-12-18T08:52:27;2.00;76.40
14850;DHT22;7517;48.400;11.770;2022-12-18T08:54:54;2.00;76.40
14850;DHT22;7517;48.400;11.770;2022-12-18T08:57:21;2.10;76.30
14850;DHT22;7517;48.400;11.770;2022-12-18T08:59:49;2.60;76.90
14850;DHT22;7517;48.400;11.770;2022-12-18T09:02:21;3.40;77.40
14850;DHT22;7517;48.400;11.770;2022-12-18T09:04:53;2.20;76.70
14850;DHT22;7517;48.400;11.770;2022-12-18T09:07:20;3.50;78.30
14850;DHT22;7517;48.400;11.770;2022-12-18T09:09:52;2.20;76.60
14850;DHT22;7517;48.400;11.770;2022-12-18T09:12:27;2.10;76.50
14850;DHT22;7517;48.400;11.770;2022-12-18T09:15:00;2.30;76.40
14850;DHT22;7517;48.400;11.770;2022-12-18T09:17:29;3.30;76.70
14850;DHT22;7517;48.400;11.770;2022-12-18T09:20:00;3.30;76.60
14850;DHT22;7517;48.400;11.770;2022-12-18T09:22:56;3.70;76.70
14850;DHT22;7517;48.400;11.770;2022-12-18T09:25:38;3.60;76.20
14850;DHT22;7517;48.400;11.770;2022-12-18T09:28:10;2.30;75.80
14850;DHT22;7517;48.400;11.770;2022-12-18T09:30:43;2.30;75.50
14850;DHT22;7517;48.400;11.770;2022-12-18T09:33:31;3.70;76.70
14850;DHT22;7517;48.400;11.770;2022-12-18T09:36:01;2.30;75.50
14850;DHT22;7517;48.400;11.770;2022-12-18T09:38:30;2.40;75.60
14850;DHT22;7517;48.400;11.770;2022-12-18T09:41:13;2.80;75.80
14850;DHT22;7517;48.400;11.770;2022-12-18T09:44:01;2.30;75.20
14850;DHT22;7517;48.400;11.770;2022-12-18T09:46:35;2.80;75.60
14850;DHT22;7517;48.400;11.770;2022-12-18T09:49:18;2.80;75.50
14850;DHT22;7517;48.400;11.770;2022-12-18T09:51:59;3.20;76.00
14850;DHT22;7517;48.400;11.770;2022-12-18T09:54:52;2.20;75.30
14850;DHT22;7517;48.400;11.770;2022-12-18T09:57:33;2.20;75.40
14850;DHT22;7517;48.400;11.770;2022-12-18T10:00:17;3.30;75.80
14850;DHT22;7517;48.400;11.770;2022-12-18T10:02:47;3.50;76.20
14850;DHT22;7517;48.400;11.770;2022-12-18T10:05:30;3.10;77.20
14850;DHT22;7517;48.400;11.770;2022-12-18T10:08:13;2.10;75.70
14850;DHT22;7517;48.400;11.770;2022-12-18T10:10:48;3.50;76.70
14850;DHT22;7517;48.400;11.770;2022-12-18T10:13:30;2.10;75.90
14850;DHT22;7517;48.400;11.770;2022-12-18T10:16:11;2.30;75.90
14850;DHT22;7517;48.400;11.770;2022-12-18T10:18:59;2.20;76.60
14850;DHT22;7517;48.400;11.770;2022-12-18T10:21:46;2.10;75.70
14850;DHT22;7517;48.400;11.770;2022-12-18T10:24:24;2.20;75.80
14850;DHT22;7517;48.400;11.770;2022-12-18T10:27:10;1.40;75.40
14850;DHT22;7517;48.400;11.770;2022-12-18T10:29:43;3.10;76.40
14850;DHT22;7517;48.400;11.770;2022-12-18T10:32:15;2.30;76.00
14850;DHT22;7517;48.400;11.770;2022-12-18T10:35:02;3.20;76.60
14850;DHT22;7517;48.400;11.770;2022-12-18T10:37:36;3.70;77.00
14850;DHT22;7517;48.400;11.770;2022-12-18T10:40:24;3.90;77.30
14850;DHT22;7517;48.400;11.770;2022-12-18T10:43:03;2.40;76.20
14850;DHT22;7517;48.400;11.770;2022-12-18T10:45:33;2.50;75.80
14850;DHT22;7517;48.400;11.770;2022-12-18T10:51:02;2.50;76.60
14850;DHT22;7517;48.400;11.770;2022-12-18T10:53:36;2.60;76.80
14850;DHT22;7517;48.400;11.770;2022-12-18T10:56:08;2.50;76.60
14850;DHT22;7517;48.400;11.770;2022-12-18T10:58:56;2.20;76.40
14850;DHT22;7517;48.400;11.770;2022-12-18T11:01:30;2.70;76.30
14850;DHT22;7517;48.400;11.770;2022-12-18T11:04:19;2.70;76.50
14850;DHT22;7517;48.400;11.770;2022-12-18T11:07:08;3.60;76.70
14850;DHT22;7517;48.400;11.770;2022-12-18T11:09:39;2.90;76.10
14850;DHT22;7517;48.400;11.770;2022-12-18T11:12:17;2.70;75.50
14850;DHT22;7517;48.400;11.770;2022-12-18T11:14:50;3.70;76.20
14850;DHT22;7517;48.400;11.770;2022-12-18T11:17:29;2.80;75.40
14850;DHT22;7517;48.400;11.770;2022-12-18T11:20:05;3.50;76.10
14850;DHT22;7517;48.400;11.770;2022-12-18T11:22:57;2.80;75.20
14850;DHT22;7517;48.400;11.770;2022-12-18T11:25:27;2.80;75.70
14850;DHT22;7517;48.400;11.770;2022-12-18T11:28:00;2.80;75.60
14850;DHT22;7517;48.400;11.770;2022-12-18T11:30:30;3.60;76.30
14850;DHT22;7517;48.400;11.770;2022-12-18T11:33:05;3.90;76.80
14850;DHT22;7517;48.400;11.770;2022-12-18T11:35:42;3.40;76.40
14850;DHT22;7517;48.400;11.770;2022-12-18T11:38:23;3.10;76.00
14850;DHT22;7517;48.400;11.770;2022-12-18T11:44:52;2.80;74.60
14850;DHT22;7517;48.400;11.770;2022-12-18T11:48:21;4.20;76.10
14850;DHT22;7517;48.400;11.770;2022-12-18T11:51:09;2.80;74.70
14850;DHT22;7517;48.400;11.770;2022-12-18T11:54:13;2.70;74.90
14850;DHT22;7517;48.400;11.770;2022-12-18T12:00:56;3.20;75.60
14850;DHT22;7517;48.400;11.770;2022-12-18T12:06:54;2.90;75.80
14850;DHT22;7517;48.400;11.770;2022-12-18T12:09:46;3.00;76.10
14850;DHT22;7517;48.400;11.770;2022-12-18T12:12:37;3.00;76.10
14850;DHT22;7517;48.400;11.770;2022-12-18T12:15:31;2.50;75.30
14850;DHT22;7517;48.400;11.770;2022-12-18T12:18:17;3.10;75.70
14850;DHT22;7517;48.400;11.770;2022-12-18T12:21:04;3.30;76.00
14850;DHT22;7517;48.400;11.770;2022-12-18T12:23:45;2.90;75.80
14850;DHT22;7517;48.400;11.770;2022-12-18T12:26:26;4.00;76.80
14850;DHT22;7517;48.400;11.770;2022-12-18T12:29:20;3.10;76.20
14850;DHT22;7517;48.400;11.770;2022-12-18T12:32:09;3.90;76.30
14850;DHT22;7517;48.400;11.770;2022-12-18T12:34:55;3.10;75.80
14850;DHT22;7517;48.400;11.770;2022-12-18T12:37:48;3.10;76.00
14850;DHT22;7517;48.400;11.770;2022-12-18T12:40:28;4.10;76.40
14850;DHT22;7517;48.400;11.770;2022-12-18T12:43:07;3.10;75.90
14850;DHT22;7517;48.400;11.770;2022-12-18T12:45:51;3.00;75.60
14850;DHT22;7517;48.400;11.770;2022-12-18T12:48:36;3.80;75.90
14850;DHT22;7517;48.400;11.770;2022-12-18T12:51:17;3.20;74.50
14850;DHT22;7517;48.400;11.770;2022-12-18T12:53:49;2.90;74.80
14850;DHT22;7517;48.400;11.770;2022-12-18T12:56:19;3.00;75.20
14850;DHT22;7517;48.400;11.770;2022-12-18T12:59:02;3.70;76.00
14850;DHT22;7517;48.400;11.770;2022-12-18T13:01:40;3.00;75.10
14850;DHT22;7517;48.400;11.770;2022-12-18T13:04:29;4.00;76.00
14850;DHT22;7517;48.400;11.770;2022-12-18T13:07:16;3.10;75.50
14850;DHT22;7517;48.400;11.770;2022-12-18T13:13:04;3.00;75.30
14850;DHT22;7517;48.400;11.770;2022-12-18T13:15:43;3.00;75.70
14850;DHT22;7517;48.400;11.770;2022-12-18T13:18:19;3.70;76.10
14850;DHT22;7517;48.400;11.770;2022-12-18T13:21:17;3.10;75.70
14850;DHT22;7517;48.400;11.770;2022-12-18T13:23:50;4.10;75.90
14850;DHT22;7517;48.400;11.770;2022-12-18T13:26:43;3.70;75.80
14850;DHT22;7517;48.400;11.770;2022-12-18T13:29:41;3.10;74.90
14850;DHT22;7517;48.400;11.770;2022-12-18T13:32:22;3.20;75.00
14850;DHT22;7517;48.400;11.770;2022-12-18T13:38:20;3.00;75.10
14850;DHT22;7517;48.400;11.770;2022-12-18T13:40:55;3.00;74.80
14850;DHT22;7517;48.400;11.770;2022-12-18T13:43:29;3.00;75.10
14850;DHT22;7517;48.400;11.770;2022-12-18T13:46:18;3.00;75.50
14850;DHT22;7517;48.400;11.770;2022-12-18T13:48:56;3.00;75.10
14850;DHT22;7517;48.400;11.770;2022-12-18T13:51:31;1.50;74.30
14850;DHT22;7517;48.400;11.770;2022-12-18T13:54:02;3.10;75.60
14850;DHT22;7517;48.400;11.770;2022-12-18T13:56:46;4.30;76.10
14850;DHT22;7517;48.400;11.770;2022-12-18T14:02:17;2.00;74.70
14850;DHT22;7517;48.400;11.770;2022-12-18T14:04:51;3.00;75.50
14850;DHT22;7517;48.400;11.770;2022-12-18T14:08:03;3.90;76.10
14850;DHT22;7517;48.400;11.770;2022-12-18T14:10:52;2.90;74.30
14850;DHT22;7517;48.400;11.770;2022-12-18T14:13:31;2.90;74.90
14850;DHT22;7517;48.400;11.770;2022-12-18T14:16:03;4.20;75.60
14850;DHT22;7517;48.400;11.770;2022-12-18T14:18:42;2.80;74.60
14850;DHT22;7517;48.400;11.770;2022-12-18T14:21:23;2.80;74.40
14850;DHT22;7517;48.400;11.770;2022-12-18T14:24:04;2.70;74.00
14850;DHT22;7517;48.400;11.770;2022-12-18T14:26:47;2.60;74.10
14850;DHT22;7517;48.400;11.770;2022-12-18T14:29:22;2.60;74.50
14850;DHT22;7517;48.400;11.770;2022-12-18T14:32:10;2.60;74.40
14850;DHT22;7517;48.400;11.770;2022-12-18T14:34:39;2.60;74.30
14850;DHT22;7517;48.400;11.770;2022-12-18T14:37:10;2.60;74.80
14850;DHT22;7517;48.400;11.770;2022-12-18T14:39:51;3.80;75.40
14850;DHT22;7517;48.400;11.770;2022-12-18T14:42:22;2.10;74.30
14850;DHT22;7517;48.400;11.770;2022-12-18T14:48:01;1.60;73.70
14850;DHT22;7517;48.400;11.770;2022-12-18T14:50:35;2.40;74.70
14850;DHT22;7517;48.400;11.770;2022-12-18T14:53:15;3.40;75.20
14850;DHT22;7517;48.400;11.770;2022-12-18T14:55:48;2.10;74.70
14850;DHT22;7517;48.400;11.770;2022-12-18T14:58:17;3.10;75.30
14850;DHT22;7517;48.400;11.770;2022-12-18T15:00:45;1.60;74.00
14850;DHT22;7517;48.400;11.770;2022-12-18T15:03:17;2.50;74.60
14850;DHT22;7517;48.400;11.770;2022-12-18T15:05:47;3.60;75.20
14850;DHT22;7517;48.400;11.770;2022-12-18T15:08:29;2.10;74.30
14850;DHT22;7517;48.400;11.770;2022-12-18T15:10:58;2.40;74.40
14850;DHT22;7517;48.400;11.770;2022-12-18T15:13:26;3.70;75.60
14850;DHT22;7517;48.400;11.770;2022-12-18T15:15:54;2.80;75.20
14850;DHT22;7517;48.400;11.770;2022-12-18T15:18:29;2.00;74.80
14850;DHT22;7517;48.400;11.770;2022-12-18T15:21:00;2.00;75.20
14850;DHT22;7517;48.400;11.770;2022-12-18T15:23:37;2.00;75.10
14850;DHT22;7517;48.400;11.770;2022-12-18T15:26:15;2.10;75.40
14850;DHT22;7517;48.400;11.770;2022-12-18T15:28:47;2.40;75.40
14850;DHT22;7517;48.400;11.770;2022-12-18T15:31:26;2.60;75.50
14850;DHT22;7517;48.400;11.770;2022-12-18T15:34:12;2.90;75.80
14850;DHT22;7517;48.400;11.770;2022-12-18T15:36:40;3.50;76.10
14850;DHT22;7517;48.400;11.770;2022-12-18T15:39:11;2.00;74.90
14850;DHT22;7517;48.400;11.770;2022-12-18T15:41:39;2.50;74.90
14850;DHT22;7517;48.400;11.770;2022-12-18T15:44:28;1.90;75.00
14850;DHT22;7517;48.400;11.770;2022-12-18T15:46:56;3.60;75.60
14850;DHT22;7517;48.400;11.770;2022-12-18T15:49:23;1.90;74.50
14850;DHT22;7517;48.400;11.770;2022-12-18T15:51:56;1.80;74.70
14850;DHT22;7517;48.400;11.770;2022-12-18T15:54:26;2.60;75.60
14850;DHT22;7517;48.400;11.770;2022-12-18T15:57:11;1.80;75.20
14850;DHT22;7517;48.400;11.770;2022-12-18T15:59:56;1.80;75.30
14850;DHT22;7517;48.400;11.770;2022-12-18T16:02:24;1.80;75.10
14850;DHT22;7517;48.400;11.770;2022-12-18T16:04:53;0.60;74.30
14850;DHT22;7517;48.400;11.770;2022-12-18T16:07:22;2.90;75.70
14850;DHT22;7517;48.400;11.770;2022-12-18T16:09:50;2.90;76.00
14850;DHT22;7517;48.400;11.770;2022-12-18T16:12:21;2.70;76.00
14850;DHT22;7517;48.400;11.770;2022-12-18T16:14:51;3.00;76.30
14850;DHT22;7517;48.400;11.770;2022-12-18T16:17:20;1.70;75.80
14850;DHT22;7517;48.400;11.770;2022-12-18T16:19:47;2.40;76.20
14850;DHT22;7517;48.400;11.770;2022-12-18T16:22:20;2.80;76.60
14850;DHT22;7517;48.400;11.770;2022-12-18T16:24:52;2.90;76.20
14850;DHT22;7517;48.400;11.770;2022-12-18T16:27:22;1.60;75.20
14850;DHT22;7517;48.400;11.770;2022-12-18T16:29:50;3.00;75.80
14850;DHT22;7517;48.400;11.770;2022-12-18T16:32:21;1.70;75.00
14850;DHT22;7517;48.400;11.770;2022-12-18T16:34:49;2.10;75.40
14850;DHT22;7517;48.400;11.770;2022-12-18T16:37:17;1.60;75.10
14850;DHT22;7517;48.400;11.770;2022-12-18T16:39:46;2.40;75.50
14850;DHT22;7517;48.400;11.770;2022-12-18T16:42:17;1.50;75.10
14850;DHT22;7517;48.400;11.770;2022-12-18T16:44:47;0.80;75.00
14850;DHT22;7517;48.400;11.770;2022-12-18T16:47:15;3.30;76.80
14850;DHT22;7517;48.400;11.770;2022-12-18T16:49:45;2.50;76.40
14850;DHT22;7517;48.400;11.770;2022-12-18T16:52:16;1.70;75.70
14850;DHT22;7517;48.400;11.770;2022-12-18T16:54:46;1.70;75.90